createdAt,value
2019-03-12T00:02:55.996Z,4.20
2019-03-12T00:05:57.825Z,4.10
2019-03-12T00:08:59.490Z,4.20
2019-03-12T00:12:00.724Z,4.20
2019-03-12T00:15:02.158Z,4.20
2019-03-12T00:18:04.010Z,4.20
2019-03-12T00:21:05.187Z,4.30
2019-03-12T00:27:12.563Z,4.30
2019-03-12T00:30:14.684Z,4.30
2019-03-12T00:33:15.746Z,4.30
2019-03-12T00:36:17.443Z,4.30
2019-03-12T00:39:19.327Z,4.20
2019-03-12T00:42:21.098Z,4.30
2019-03-12T00:45:22.151Z,4.30
2019-03-12T00:48:23.737Z,4.30
2019-03-12T00:51:25.223Z,4.30
2019-03-12T00:57:33.751Z,4.20
2019-03-12T01:00:34.856Z,4.10
2019-03-12T01:03:35.759Z,4.10
2019-03-12T01:06:36.652Z,4.00
2019-03-12T01:09:38.116Z,4.00
2019-03-12T01:12:40.896Z,4.00
2019-03-12T01:15:42.131Z,4.00
2019-03-12T01:18:43.113Z,4.00
2019-03-12T01:21:44.256Z,4.00
2019-03-12T01:27:52.347Z,4.00
2019-03-12T01:30:53.562Z,4.10
2019-03-12T01:33:54.991Z,4.00
2019-03-12T01:36:56.231Z,3.90
2019-03-12T01:39:57.799Z,3.90
2019-03-12T01:42:47.583Z,3.90
2019-03-12T01:45:56.261Z,3.90
2019-03-12T01:48:57.389Z,3.80
2019-03-12T01:51:58.786Z,3.80
2019-03-12T01:58:07.336Z,3.80
2019-03-12T02:01:09.267Z,3.90
2019-03-12T02:04:11.089Z,3.90
2019-03-12T02:07:12.324Z,3.90
2019-03-12T02:10:01.889Z,4.00
2019-03-12T02:12:51.852Z,3.90
2019-03-12T02:15:53.559Z,3.90
2019-03-12T02:18:43.227Z,3.90
2019-03-12T02:21:33.035Z,3.80
2019-03-12T02:24:22.603Z,3.80
2019-03-12T02:30:52.120Z,3.60
2019-03-12T02:33:53.061Z,3.50
2019-03-12T02:36:54.297Z,3.40
2019-03-12T02:39:55.659Z,3.40
2019-03-12T02:42:57.426Z,3.40
2019-03-12T02:45:57.487Z,3.40
2019-03-12T02:49:09.300Z,3.30
2019-03-12T02:52:12.567Z,3.30
2019-03-12T02:55:13.717Z,3.30
2019-03-12T02:58:21.616Z,3.30
2019-03-12T03:01:22.979Z,3.30
2019-03-12T03:04:24.534Z,3.30
2019-03-12T03:07:44.859Z,3.20
2019-03-12T03:10:46.605Z,3.30
2019-03-12T03:13:47.923Z,3.20
2019-03-12T03:16:52.323Z,3.30
2019-03-12T03:19:53.802Z,3.30
2019-03-12T03:22:55.443Z,3.40
2019-03-12T03:25:57.032Z,3.40
2019-03-12T03:29:04.627Z,3.60
2019-03-12T03:32:05.907Z,3.60
2019-03-12T03:35:07.609Z,3.60
2019-03-12T03:38:09.176Z,3.60
2019-03-12T03:41:10.475Z,3.40
2019-03-12T03:44:12.228Z,3.30
2019-03-12T03:47:13.700Z,3.40
2019-03-12T03:50:15.189Z,3.40
2019-03-12T03:53:16.719Z,3.40
2019-03-12T03:56:17.742Z,3.50
2019-03-12T03:59:25.383Z,3.50
2019-03-12T04:02:27.339Z,3.50
2019-03-12T04:05:28.552Z,3.50
2019-03-12T04:08:29.756Z,3.50
2019-03-12T04:11:31.349Z,3.50
2019-03-12T04:14:33.111Z,3.50
2019-03-12T04:17:34.881Z,3.40
2019-03-12T04:20:36.644Z,3.40
2019-03-12T04:23:38.508Z,3.40
2019-03-12T04:26:39.835Z,3.40
2019-03-12T04:29:47.047Z,3.40
2019-03-12T04:32:49.135Z,3.30
2019-03-12T04:35:50.171Z,3.40
2019-03-12T04:38:40.129Z,3.30
2019-03-12T04:41:49.008Z,3.30
2019-03-12T04:44:49.941Z,3.30
2019-03-12T04:47:51.639Z,3.30
2019-03-12T04:50:55.912Z,3.30
2019-03-12T04:54:02.984Z,3.30
2019-03-12T04:57:04.699Z,3.30
2019-03-12T05:00:12.345Z,3.30
2019-03-12T05:03:13.697Z,3.40
2019-03-12T05:06:14.729Z,3.30
2019-03-12T05:09:15.993Z,3.30
2019-03-12T05:12:17.152Z,3.40
2019-03-12T05:15:17.245Z,3.30
2019-03-12T05:18:18.300Z,3.30
2019-03-12T05:21:19.227Z,3.40
2019-03-12T05:24:08.849Z,3.40
2019-03-12T05:27:17.884Z,3.40
2019-03-12T05:30:24.835Z,3.40
2019-03-12T05:33:26.913Z,3.40
2019-03-12T05:36:27.912Z,3.40
2019-03-12T05:39:29.691Z,3.40
2019-03-12T05:42:30.705Z,3.40
2019-03-12T05:45:32.399Z,3.40
2019-03-12T05:48:34.308Z,3.40
2019-03-12T05:54:40.895Z,3.40
2019-03-12T05:57:49.758Z,3.50
2019-03-12T06:04:08.312Z,3.60
2019-03-12T06:07:09.891Z,3.60
2019-03-12T06:10:11.395Z,3.50
2019-03-12T06:13:12.692Z,3.50
2019-03-12T06:16:14.668Z,3.50
2019-03-12T06:19:15.833Z,3.60
2019-03-12T06:22:16.755Z,3.60
2019-03-12T06:25:17.860Z,3.60
2019-03-12T06:28:18.955Z,3.60
2019-03-12T06:34:53.120Z,3.70
2019-03-12T06:38:19.643Z,3.80
2019-03-12T06:41:29.321Z,3.90
2019-03-12T06:48:21.501Z,4.30
2019-03-12T06:51:45.275Z,4.60
2019-03-12T06:55:06.520Z,4.50
2019-03-12T06:58:27.071Z,4.30
2019-03-12T07:01:47.221Z,4.30
2019-03-12T07:05:07.433Z,4.10
2019-03-12T07:08:23.332Z,4.20
2019-03-12T07:11:43.441Z,4.30
2019-03-12T07:18:33.607Z,4.40
2019-03-12T07:21:53.525Z,4.50
2019-03-12T07:25:07.093Z,4.50
2019-03-12T07:28:34.974Z,4.70
2019-03-12T07:31:42.459Z,5.10
2019-03-12T07:35:05.859Z,5.10
2019-03-12T07:38:26.227Z,5.90
2019-03-12T07:45:08.745Z,8.00
2019-03-12T07:48:28.842Z,8.00
2019-03-12T07:54:58.919Z,9.20
2019-03-12T07:58:34.852Z,9.00
2019-03-12T08:01:32.445Z,9.80
2019-03-12T08:05:00.382Z,10.70
2019-03-12T08:08:07.728Z,10.40
2019-03-12T08:11:27.859Z,10.60
2019-03-12T08:14:48.406Z,11.30
2019-03-12T08:21:28.830Z,10.90
2019-03-12T08:24:38.471Z,11.40
2019-03-12T08:27:59.296Z,11.30
2019-03-12T08:31:19.524Z,10.60
2019-03-12T08:37:53.396Z,11.50
2019-03-12T08:41:14.406Z,10.90
2019-03-12T08:44:26.221Z,11.10
2019-03-12T08:47:45.523Z,12.10
2019-03-12T08:51:00.276Z,11.50
2019-03-12T08:54:24.175Z,12.20
2019-03-12T08:57:39.864Z,13.10
2019-03-12T09:01:02.527Z,12.60
2019-03-12T09:07:49.168Z,12.00
2019-03-12T09:11:09.472Z,12.30
2019-03-12T09:14:18.515Z,13.40
2019-03-12T09:17:44.480Z,12.30
2019-03-12T09:21:05.322Z,10.60
2019-03-12T09:24:28.428Z,8.90
2019-03-12T09:27:49.603Z,8.00
2019-03-12T09:31:10.133Z,8.30
2019-03-12T09:37:44.921Z,10.40
2019-03-12T09:41:12.812Z,10.60
2019-03-12T09:44:25.864Z,13.00
2019-03-12T09:47:34.767Z,13.50
2019-03-12T09:54:22.542Z,10.30
2019-03-12T09:57:43.180Z,11.00
2019-03-12T10:00:51.259Z,12.80
2019-03-12T10:04:14.629Z,12.10
2019-03-12T10:07:22.367Z,10.90
2019-03-12T10:10:43.521Z,10.10
2019-03-12T10:14:02.305Z,10.20
2019-03-12T10:17:30.399Z,10.20
2019-03-12T10:20:56.070Z,9.20
2019-03-12T10:24:09.580Z,10.20
2019-03-12T10:27:29.885Z,9.70
2019-03-12T10:30:53.736Z,10.00
2019-03-12T10:34:14.560Z,10.30
2019-03-12T10:41:00.392Z,9.80
2019-03-12T10:44:13.564Z,10.10
2019-03-12T10:47:19.124Z,12.20
2019-03-12T10:50:20.155Z,10.90
2019-03-12T10:53:21.600Z,11.60
2019-03-12T10:56:23.595Z,11.40
2019-03-12T10:59:24.826Z,10.60
2019-03-12T11:02:26.418Z,10.10
2019-03-12T11:05:27.658Z,9.50
2019-03-12T11:11:35.548Z,9.00
2019-03-12T11:14:36.937Z,8.70
2019-03-12T11:17:48.942Z,9.40
2019-03-12T11:20:43.506Z,10.60
2019-03-12T11:23:52.095Z,10.90
2019-03-12T11:26:53.427Z,10.60
2019-03-12T11:29:54.934Z,10.70
2019-03-12T11:32:57.090Z,9.70
2019-03-12T11:35:58.476Z,9.60
2019-03-12T11:39:06.228Z,10.90
2019-03-12T11:42:06.565Z,11.40
2019-03-12T11:45:15.123Z,11.90
2019-03-12T11:48:13.268Z,12.20
2019-03-12T11:51:15.092Z,12.10
2019-03-12T11:54:16.147Z,11.70
2019-03-12T11:57:05.916Z,11.10
2019-03-12T12:00:28.101Z,11.30
2019-03-12T12:03:37.220Z,11.00
2019-03-12T12:06:42.513Z,11.50
2019-03-12T12:09:48.598Z,12.30
2019-03-12T12:12:49.982Z,13.10
2019-03-12T12:15:51.019Z,12.30
2019-03-12T12:18:52.380Z,12.60
2019-03-12T12:21:53.856Z,12.10
2019-03-12T12:24:55.594Z,12.00
2019-03-12T12:27:56.785Z,11.90
2019-03-12T12:30:58.132Z,11.80
2019-03-12T12:33:59.575Z,11.80
2019-03-12T12:37:01.430Z,11.00
2019-03-12T12:40:08.627Z,10.30
2019-03-12T12:43:09.966Z,11.10
2019-03-12T12:46:10.988Z,11.10
2019-03-12T12:49:12.410Z,11.20
2019-03-12T12:52:13.846Z,11.10
2019-03-12T12:55:15.135Z,11.70
2019-03-12T12:58:16.717Z,12.70
2019-03-12T13:01:06.677Z,11.90
2019-03-12T13:04:15.632Z,11.00
2019-03-12T13:07:16.695Z,11.00
2019-03-12T13:10:24.015Z,10.70
2019-03-12T13:13:29.459Z,10.50
2019-03-12T13:16:30.677Z,10.80
2019-03-12T13:19:32.550Z,11.00
2019-03-12T13:22:34.039Z,10.60
2019-03-12T13:25:34.279Z,10.80
2019-03-12T13:28:45.013Z,11.20
2019-03-12T13:31:49.023Z,11.30
2019-03-12T13:34:51.183Z,10.90
2019-03-12T13:37:52.864Z,10.70
2019-03-12T13:44:04.366Z,12.70
2019-03-12T13:47:06.112Z,13.80
2019-03-12T13:50:07.528Z,15.60
2019-03-12T13:53:08.527Z,14.90
2019-03-12T13:56:10.522Z,15.30
2019-03-12T13:59:11.665Z,15.70
2019-03-12T14:02:12.649Z,15.90
2019-03-12T14:05:14.432Z,14.50
2019-03-12T14:08:15.965Z,12.70
2019-03-12T14:14:24.486Z,13.10
2019-03-12T14:17:26.504Z,12.90
2019-03-12T14:20:27.759Z,11.50
2019-03-12T14:23:29.403Z,10.90
2019-03-12T14:26:30.471Z,10.70
2019-03-12T14:29:31.655Z,10.70
2019-03-12T14:32:32.612Z,10.90
2019-03-12T14:35:34.298Z,10.80
2019-03-12T14:38:35.214Z,11.00
2019-03-12T14:44:39.167Z,10.50
2019-03-12T14:53:26.272Z,10.20
2019-03-12T14:56:27.998Z,10.30
2019-03-12T14:59:29.780Z,10.10
2019-03-12T15:02:31.402Z,10.30
2019-03-12T15:05:32.990Z,10.20
2019-03-12T15:08:34.515Z,10.20
2019-03-12T15:11:36.115Z,10.00
2019-03-12T15:14:37.850Z,10.00
2019-03-12T15:17:39.214Z,9.90
2019-03-12T15:20:40.680Z,9.90
2019-03-12T15:23:41.608Z,9.80
2019-03-12T15:26:43.258Z,9.70
2019-03-12T15:29:44.446Z,9.80
2019-03-12T15:32:46.241Z,9.80
2019-03-12T15:35:47.733Z,9.70
2019-03-12T15:38:49.177Z,9.50
2019-03-12T15:41:50.857Z,9.40
2019-03-12T15:44:52.536Z,9.40
2019-03-12T15:47:54.668Z,9.50
2019-03-12T15:50:56.708Z,9.60
2019-03-12T15:57:30.798Z,9.40
2019-03-12T16:00:32.619Z,9.30
2019-03-12T16:03:33.846Z,9.30
2019-03-12T16:06:33.540Z,9.20
2019-03-12T16:16:22.079Z,9.20
2019-03-12T16:19:25.262Z,9.30
2019-03-12T16:22:26.832Z,9.20
2019-03-12T16:25:28.199Z,9.10
2019-03-12T16:28:30.269Z,9.10
2019-03-12T16:31:31.410Z,9.00
2019-03-12T16:34:33.415Z,8.90
2019-03-12T16:37:33.361Z,8.90
2019-03-12T16:40:41.959Z,8.90
2019-03-12T16:46:48.318Z,8.80
2019-03-12T16:53:21.831Z,8.60
2019-03-12T16:56:23.866Z,8.60
2019-03-12T16:59:25.087Z,8.50
2019-03-12T17:02:26.509Z,8.60
2019-03-12T17:05:26.797Z,8.50
2019-03-12T17:08:28.672Z,8.50
2019-03-12T17:11:30.737Z,8.40
2019-03-12T17:17:39.445Z,8.30
2019-03-12T17:20:41.360Z,8.30
2019-03-12T17:23:43.008Z,8.20
2019-03-12T17:26:44.640Z,8.10
2019-03-12T17:29:46.426Z,8.00
2019-03-12T17:32:48.325Z,8.00
2019-03-12T17:35:49.738Z,7.90
2019-03-12T17:38:50.715Z,7.90
2019-03-12T17:41:51.415Z,7.90
2019-03-12T17:47:59.550Z,7.90
2019-03-12T17:51:00.676Z,7.90
2019-03-12T17:54:06.610Z,7.90
2019-03-12T17:57:07.636Z,7.90
2019-03-12T18:00:09.655Z,7.90
2019-03-12T18:03:11.128Z,7.90
2019-03-12T18:06:01.251Z,7.90
2019-03-12T18:09:10.105Z,7.90
2019-03-12T18:12:11.795Z,7.80
2019-03-12T18:18:19.977Z,7.80
2019-03-12T18:21:21.439Z,7.70
2019-03-12T18:24:11.426Z,7.80
2019-03-12T18:33:53.799Z,7.70
2019-03-12T18:36:55.624Z,7.70
2019-03-12T18:39:56.769Z,7.60
2019-03-12T18:42:58.636Z,7.60
2019-03-12T18:49:06.911Z,7.60
2019-03-12T18:52:08.757Z,7.60
2019-03-12T18:55:09.991Z,7.50
2019-03-12T18:58:12.120Z,7.60
2019-03-12T19:01:13.574Z,7.60
2019-03-12T19:04:14.723Z,7.60
2019-03-12T19:07:18.218Z,7.60
2019-03-12T19:10:18.389Z,7.60
2019-03-12T19:13:19.551Z,7.60
2019-03-12T19:19:28.232Z,7.60
2019-03-12T19:22:30.247Z,7.60
2019-03-12T19:25:38.109Z,7.60
2019-03-12T19:28:38.784Z,7.60
2019-03-12T19:32:00.062Z,7.60
2019-03-12T19:35:02.020Z,7.60
2019-03-12T19:38:04.266Z,7.60
2019-03-12T19:41:05.959Z,7.50
2019-03-12T19:44:07.137Z,7.50
2019-03-12T19:50:36.738Z,7.40
2019-03-12T19:53:38.127Z,7.30
2019-03-12T19:56:39.402Z,7.40
2019-03-12T19:59:41.388Z,7.30
2019-03-12T20:02:42.985Z,7.30
2019-03-12T20:05:44.544Z,7.30
2019-03-12T20:08:46.582Z,7.30
2019-03-12T20:14:55.273Z,7.30
2019-03-12T20:18:02.659Z,7.30
2019-03-12T20:21:04.342Z,7.30
2019-03-12T20:24:05.428Z,7.30
2019-03-12T20:27:08.217Z,7.30
2019-03-12T20:30:36.892Z,7.30
2019-03-12T20:34:05.283Z,7.40
2019-03-12T20:37:33.239Z,7.30
2019-03-12T20:41:01.135Z,7.40
2019-03-12T20:44:02.670Z,7.30
2019-03-12T20:47:04.016Z,7.40
2019-03-12T20:53:15.247Z,7.40
2019-03-12T20:56:16.799Z,7.40
2019-03-12T20:59:18.799Z,7.40
2019-03-12T21:02:20.379Z,7.40
2019-03-12T21:05:22.503Z,7.40
2019-03-12T21:08:24.279Z,7.40
2019-03-12T21:11:26.294Z,7.40
2019-03-12T21:14:55.039Z,7.40
2019-03-12T21:17:56.931Z,7.40
2019-03-12T21:24:05.902Z,7.30
2019-03-12T21:27:07.544Z,7.30
2019-03-12T21:30:11.503Z,7.30
2019-03-12T21:33:15.484Z,7.30
2019-03-12T21:36:14.860Z,7.20
2019-03-12T21:39:16.762Z,7.30
2019-03-12T21:42:17.971Z,7.40
2019-03-12T21:45:19.391Z,7.30
2019-03-12T21:48:20.800Z,7.40
2019-03-12T21:54:29.743Z,7.30
2019-03-12T21:57:30.717Z,7.30
2019-03-12T22:00:32.244Z,7.40
2019-03-12T22:03:32.295Z,7.40
2019-03-12T22:06:41.004Z,7.40
2019-03-12T22:09:42.300Z,7.50
2019-03-12T22:12:43.640Z,7.50
2019-03-12T22:15:45.590Z,7.50
2019-03-12T22:18:46.902Z,7.60
2019-03-12T22:22:07.258Z,7.50
2019-03-12T22:25:08.327Z,7.50
2019-03-12T22:28:10.571Z,7.50
2019-03-12T22:31:12.635Z,7.60
2019-03-12T22:34:13.874Z,7.50
2019-03-12T22:37:14.872Z,7.50
2019-03-12T22:40:15.665Z,7.40
2019-03-12T22:43:05.564Z,7.50
2019-03-12T22:46:14.220Z,7.50
2019-03-12T22:49:15.502Z,7.50
2019-03-12T22:55:28.763Z,7.50
2019-03-12T22:58:30.094Z,7.40
2019-03-12T23:01:31.875Z,7.50
2019-03-12T23:11:17.777Z,7.70
2019-03-12T23:14:19.565Z,7.60
2019-03-12T23:17:25.663Z,7.60
2019-03-12T23:20:27.323Z,7.60
2019-03-12T23:26:34.923Z,7.60
2019-03-12T23:29:37.073Z,7.60
2019-03-12T23:32:38.819Z,7.60
2019-03-12T23:35:40.294Z,7.60
2019-03-12T23:38:40.175Z,7.70
2019-03-12T23:45:09.068Z,7.70
2019-03-12T23:48:10.180Z,7.70
2019-03-12T23:51:11.458Z,7.80
2019-03-12T23:57:20.032Z,7.80
